Lansing, MI (48919)

3:17 PM EDT on March 26, 2017 (GMT -0400)
Shaw Estates | | Change Station
Active Advisory: Flood Advisory Active Notice: Flood Advisory

Elev 869 ft 42.73 °N, 84.54 °W | Updated 47 seconds ago

Overcast
Overcast
50.9 °F
Feels Like 50.9 °F
N
0.0
Wind Variable Wind from South
Gusts 0.0 mph

Today
High -- | Low -- °F
--% Chance of Precip.
Yesterday
High -- | Low -- °F
Precip. -- in
Pressure 29.91 in
Visibility 9.0 miles
Clouds Mostly Cloudy 500 ft
Overcast 1600 ft
Dew Point 48 °F
Humidity 88%
Rainfall 0.11 in
Snow Depth Not available.
7:30 AM 7:57 PM
Waning Crescent, 2% visible
METAR KLAN 261853Z 16007KT 9SM BKN005 OVC016 11/08 A2990 RMK AO2 RAE21 SLP128 P0005 T01060083
Pressure 29.91 in
Visibility 9.0 miles
Clouds Mostly Cloudy 500 ft
Overcast 1600 ft
Dew Point 48 °F
Humidity 88%
Rainfall 0.11 in
Snow Depth Not available.
7:30 AM 7:57 PM
Waning Crescent, 2% visible
METAR KLAN 261853Z 16007KT 9SM BKN005 OVC016 11/08 A2990 RMK AO2 RAE21 SLP128 P0005 T01060083

Get Your Daily Forecast Email!

Thanks for signing up!

Be on the lookout for a verification email in your inbox.

You'll start receiving severe weather alerts in your inbox..

×

10-Day Weather Forecast

Almanac

Astronomy

Mar. 26, 2017 Rise Set
Actual Time
Civil Twilight
Nautical Twilight
Astronomical Twilight
Moon
Length of Visible Light
Length of Day
Tomorrow will be .
, % of the Moon is Illuminated

Today's Extremes

State Highs State Lows

Community

WunderPhotos

Upload Photos

1,962,540 photos uploaded!

WunderBlog® & News

Nearby

Air Quality

  Air Quality AQ Index Pollutant
Not available.

Snow Depth

Station Depth Elevation

Earthquake Activity

City Distance Mag. Time & Date
Minimum magnitude displayed is 2.5.

Earthquake Activity

City Distance Mag. Time & Date
Minimum magnitude displayed is 2.5.

Coastal Water Temperatures

Place Temperature

Stations

Nearby Weather Stations

Station Location Temp. Windchill Dew Point Humidity Wind Precip. Elev Updated Type
                   

Watches & Warnings

Flood Advisory
Issued: 9:43 AM EDT Mar. 26, 2017 – National Weather Service

The flood advisory is extended for
the Sycamore Creek at Holt
* until Wednesday afternoon.
* At 06 PM Saturday the stage was 6.0 feet.
* Bankfull stage is 6.0 feet.
* Flood stage is 8.0 feet.
* Forecast, the river will rise to near 6.6 feet by this afternoon.
* Impact, at 6.0 feet... flooding begins in low lying areas along the
creek and at the Lansing Municipal Golf course and Scott Woods
Park.


Lat... Lon 4271 8455 4268 8455 4264 8451 4264 8445
      4268 8449 4271 8451